createdAt,value
2023-02-15T00:00:07.104Z,4.76
2023-02-15T00:02:41.593Z,4.77
2023-02-15T00:05:13.144Z,4.79
2023-02-15T00:07:47.853Z,4.79
2023-02-15T00:10:19.491Z,4.69
2023-02-15T00:12:53.366Z,4.67
2023-02-15T00:15:26.942Z,4.66
2023-02-15T00:17:58.501Z,4.61
2023-02-15T00:20:30.111Z,4.53
2023-02-15T00:23:01.679Z,4.52
2023-02-15T00:25:33.271Z,4.50
2023-02-15T00:28:06.705Z,4.45
2023-02-15T00:30:39.952Z,4.47
2023-02-15T00:33:11.512Z,4.52
2023-02-15T00:35:54.342Z,4.48
2023-02-15T00:38:28.359Z,4.45
2023-02-15T00:41:07.101Z,4.40
2023-02-15T00:43:41.581Z,4.36
2023-02-15T00:46:13.182Z,4.29
2023-02-15T00:48:44.735Z,4.31
2023-02-15T00:51:16.850Z,4.29
2023-02-15T00:53:50.305Z,4.31
2023-02-15T00:56:25.002Z,4.30
2023-02-15T00:58:56.936Z,4.31
2023-02-15T01:01:29.169Z,4.28
2023-02-15T01:04:00.939Z,4.29
2023-02-15T01:06:34.619Z,4.26
2023-02-15T01:09:06.519Z,4.16
2023-02-15T01:11:44.156Z,4.07
2023-02-15T01:14:15.806Z,4.03
2023-02-15T01:16:47.428Z,4.02
2023-02-15T01:19:21.690Z,4.04
2023-02-15T01:21:58.173Z,4.03
2023-02-15T01:24:33.680Z,4.01
2023-02-15T01:27:07.545Z,3.96
2023-02-15T01:29:48.421Z,3.96
2023-02-15T01:32:20.607Z,3.94
2023-02-15T01:34:54.701Z,3.94
2023-02-15T01:37:29.053Z,3.97
2023-02-15T01:40:01.129Z,3.98
2023-02-15T01:42:32.991Z,3.92
2023-02-15T01:45:15.531Z,3.89
2023-02-15T01:48:10.799Z,3.89
2023-02-15T01:50:43.991Z,3.81
2023-02-15T01:53:34.480Z,3.70
2023-02-15T01:56:16.362Z,3.72
2023-02-15T01:58:51.841Z,3.78
2023-02-15T02:01:23.634Z,3.81
2023-02-15T02:03:55.501Z,3.82
2023-02-15T02:06:27.418Z,3.86
2023-02-15T02:08:59.344Z,3.84
2023-02-15T02:11:35.813Z,3.75
2023-02-15T02:14:07.535Z,3.72
2023-02-15T02:16:58.878Z,3.70
2023-02-15T02:19:30.391Z,3.66
2023-02-15T02:22:15.377Z,3.64
2023-02-15T02:25:07.477Z,3.64
2023-02-15T02:27:50.488Z,3.59
2023-02-15T02:30:39.481Z,3.55
2023-02-15T02:33:18.212Z,3.56
2023-02-15T02:35:52.394Z,3.61
2023-02-15T02:38:23.904Z,3.64
2023-02-15T02:40:57.456Z,3.64
2023-02-15T02:43:34.655Z,3.59
2023-02-15T02:46:22.543Z,3.53
2023-02-15T02:48:54.717Z,3.50
2023-02-15T02:51:29.376Z,3.51
2023-02-15T02:54:08.992Z,3.54
2023-02-15T02:56:49.285Z,3.51
2023-02-15T02:59:46.592Z,3.51
2023-02-15T03:02:22.865Z,3.44
2023-02-15T03:05:04.263Z,3.45
2023-02-15T03:07:47.831Z,3.39
2023-02-15T03:10:21.800Z,3.34
2023-02-15T03:12:55.812Z,3.38
2023-02-15T03:15:55.308Z,3.31
2023-02-15T03:18:29.800Z,3.28
2023-02-15T03:21:02.491Z,3.23
2023-02-15T03:23:35.592Z,3.25
2023-02-15T03:26:12.191Z,3.32
2023-02-15T03:28:46.747Z,3.30
2023-02-15T03:31:19.419Z,3.34
2023-02-15T03:33:58.375Z,3.38
2023-02-15T03:36:44.022Z,3.45
2023-02-15T03:39:54.544Z,3.45
2023-02-15T03:42:30.350Z,3.48
2023-02-15T03:45:07.081Z,3.39
2023-02-15T03:47:42.748Z,3.36
2023-02-15T03:50:40.370Z,3.33
2023-02-15T03:53:14.803Z,3.25
2023-02-15T03:55:54.775Z,3.18
2023-02-15T03:58:48.186Z,3.15
2023-02-15T04:01:58.307Z,3.16
2023-02-15T04:04:40.034Z,3.06
2023-02-15T04:07:14.643Z,2.98
2023-02-15T04:10:05.000Z,2.82
2023-02-15T04:12:39.581Z,2.82
2023-02-15T04:15:31.912Z,2.83
2023-02-15T04:18:06.636Z,2.80
2023-02-15T04:20:56.995Z,2.80
2023-02-15T04:23:55.016Z,2.83
2023-02-15T04:26:29.574Z,2.82
2023-02-15T04:29:01.086Z,2.85
2023-02-15T04:31:37.086Z,2.86
2023-02-15T04:34:08.713Z,2.83
2023-02-15T04:36:40.586Z,2.88
2023-02-15T04:39:16.048Z,2.87
2023-02-15T04:41:49.151Z,2.84
2023-02-15T04:44:20.765Z,2.79
2023-02-15T04:46:52.273Z,2.72
2023-02-15T04:49:23.914Z,2.69
2023-02-15T04:51:55.429Z,2.69
2023-02-15T04:54:26.998Z,2.71
2023-02-15T04:56:58.486Z,2.69
2023-02-15T04:59:31.474Z,2.70
2023-02-15T05:02:03.066Z,2.69
2023-02-15T05:04:34.727Z,2.67
2023-02-15T05:07:06.288Z,2.64
2023-02-15T05:09:41.241Z,2.68
2023-02-15T05:12:12.766Z,2.64
2023-02-15T05:14:44.371Z,2.60
2023-02-15T05:17:16.079Z,2.54
2023-02-15T05:19:50.733Z,2.58
2023-02-15T05:22:22.270Z,2.52
2023-02-15T05:25:12.185Z,2.38
2023-02-15T05:28:04.418Z,2.42
2023-02-15T05:30:37.539Z,2.40
2023-02-15T05:33:15.702Z,2.47
2023-02-15T05:35:47.295Z,2.56
2023-02-15T05:38:18.822Z,2.65
2023-02-15T05:40:51.468Z,2.65
2023-02-15T05:43:23.292Z,2.71
2023-02-15T05:45:58.540Z,2.70
2023-02-15T05:48:30.546Z,2.67
2023-02-15T05:51:09.291Z,2.54
2023-02-15T05:53:49.820Z,2.53
2023-02-15T05:56:21.404Z,2.55
2023-02-15T05:58:54.070Z,2.52
2023-02-15T06:01:26.252Z,2.48
2023-02-15T06:03:57.879Z,2.41
2023-02-15T06:06:29.463Z,2.36
2023-02-15T06:09:01.135Z,2.34
2023-02-15T06:11:32.662Z,2.32
2023-02-15T06:14:07.135Z,2.31
2023-02-15T06:16:38.878Z,2.23
2023-02-15T06:19:12.691Z,2.15
2023-02-15T06:21:44.276Z,2.11
2023-02-15T06:24:15.904Z,2.04
2023-02-15T06:26:47.434Z,2.01
2023-02-15T06:29:19.002Z,1.96
2023-02-15T06:31:52.301Z,1.88
2023-02-15T06:34:23.865Z,1.80
2023-02-15T06:36:55.428Z,1.86
2023-02-15T06:39:29.514Z,1.90
2023-02-15T06:42:01.118Z,2.01
2023-02-15T06:44:32.627Z,2.10
2023-02-15T06:47:07.141Z,2.04
2023-02-15T06:49:38.737Z,2.02
2023-02-15T06:52:11.857Z,1.95
2023-02-15T06:54:47.917Z,1.99
2023-02-15T06:57:19.457Z,2.02
2023-02-15T06:59:51.138Z,1.94
2023-02-15T07:02:31.861Z,1.84
2023-02-15T07:05:06.544Z,1.79
2023-02-15T07:07:38.095Z,1.81
2023-02-15T07:10:09.747Z,1.89
2023-02-15T07:12:45.383Z,1.95
2023-02-15T07:15:18.325Z,2.04
2023-02-15T07:17:53.960Z,2.17
2023-02-15T07:20:25.555Z,2.18
2023-02-15T07:22:57.144Z,2.15
2023-02-15T07:25:28.685Z,2.03
2023-02-15T07:28:01.684Z,1.91
2023-02-15T07:30:34.871Z,1.89
2023-02-15T07:33:25.580Z,1.76
2023-02-15T07:36:02.172Z,1.69
2023-02-15T07:38:34.889Z,1.66
2023-02-15T07:41:29.282Z,1.63
2023-02-15T07:44:04.020Z,1.59
2023-02-15T07:46:35.574Z,1.61
2023-02-15T07:49:07.191Z,1.68
2023-02-15T07:51:38.873Z,1.81
2023-02-15T07:54:10.451Z,1.95
2023-02-15T07:56:42.086Z,2.06
2023-02-15T07:59:14.764Z,2.08
2023-02-15T08:01:46.406Z,2.15
2023-02-15T08:04:20.679Z,2.14
2023-02-15T08:06:55.727Z,1.93
2023-02-15T08:09:27.403Z,1.84
2023-02-15T08:11:58.913Z,1.73
2023-02-15T08:14:30.499Z,1.73
2023-02-15T08:17:06.072Z,1.61
2023-02-15T08:19:37.842Z,1.55
2023-02-15T08:22:13.476Z,1.54
2023-02-15T08:24:45.130Z,1.50
2023-02-15T08:27:16.786Z,1.53
2023-02-15T08:29:48.350Z,1.52
2023-02-15T08:32:20.052Z,1.49
2023-02-15T08:34:51.664Z,1.44
2023-02-15T08:37:23.230Z,1.47
2023-02-15T08:39:54.822Z,1.43
2023-02-15T08:42:26.390Z,1.43
2023-02-15T08:44:57.959Z,1.46
2023-02-15T08:47:29.530Z,1.57
2023-02-15T08:50:01.240Z,1.60
2023-02-15T08:52:33.787Z,1.62
2023-02-15T08:55:05.868Z,1.67
2023-02-15T08:57:38.102Z,1.76
2023-02-15T09:00:10.186Z,1.83
2023-02-15T09:02:41.867Z,1.88
2023-02-15T09:05:13.466Z,1.89
2023-02-15T09:07:45.029Z,1.92
2023-02-15T09:10:16.721Z,1.89
2023-02-15T09:12:48.283Z,1.93
2023-02-15T09:15:19.870Z,1.88
2023-02-15T09:17:51.359Z,1.84
2023-02-15T09:20:23.835Z,1.82
2023-02-15T09:22:57.657Z,1.85
2023-02-15T09:25:30.665Z,1.87
2023-02-15T09:28:02.173Z,1.85
2023-02-15T09:30:34.550Z,1.84
2023-02-15T09:33:06.144Z,1.80
2023-02-15T09:35:37.680Z,1.87
2023-02-15T09:38:10.791Z,1.87
2023-02-15T09:40:51.158Z,1.88
2023-02-15T09:43:34.451Z,1.98
2023-02-15T09:46:06.163Z,1.98
2023-02-15T09:48:37.767Z,1.94
2023-02-15T09:51:47.565Z,2.09
2023-02-15T09:54:21.869Z,2.48
2023-02-15T09:56:56.588Z,2.74
2023-02-15T09:59:28.168Z,2.88
2023-02-15T10:02:19.663Z,2.96
2023-02-15T10:05:12.800Z,2.97
2023-02-15T10:07:44.329Z,2.89
2023-02-15T10:10:16.163Z,2.97
2023-02-15T10:13:08.198Z,2.97
2023-02-15T10:15:40.615Z,2.81
2023-02-15T10:18:23.497Z,2.77
2023-02-15T10:20:54.960Z,2.78
2023-02-15T10:23:35.609Z,2.87
2023-02-15T10:26:17.636Z,3.03
2023-02-15T10:28:50.582Z,3.16
2023-02-15T10:31:22.307Z,3.33
2023-02-15T10:34:12.460Z,3.32
2023-02-15T10:37:11.631Z,3.27
2023-02-15T10:39:43.548Z,3.19
2023-02-15T10:42:33.765Z,3.21
2023-02-15T10:45:05.311Z,3.26
2023-02-15T10:47:50.826Z,3.17
2023-02-15T10:50:43.814Z,3.12
2023-02-15T10:53:28.401Z,3.06
2023-02-15T10:55:59.977Z,3.02
2023-02-15T10:58:50.520Z,2.89
2023-02-15T11:01:23.336Z,2.86
2023-02-15T11:04:00.788Z,2.94
2023-02-15T11:06:33.703Z,3.00
2023-02-15T11:09:10.076Z,3.06
2023-02-15T11:11:45.892Z,3.19
2023-02-15T11:14:29.723Z,3.25
2023-02-15T11:17:05.612Z,3.29
2023-02-15T11:19:41.192Z,3.32
2023-02-15T11:22:16.140Z,3.33
2023-02-15T11:24:49.489Z,3.27
2023-02-15T11:27:22.714Z,3.24
2023-02-15T11:29:54.387Z,3.17
2023-02-15T11:32:34.286Z,3.13
2023-02-15T11:35:05.840Z,2.91
2023-02-15T11:37:44.094Z,2.86
2023-02-15T11:40:27.678Z,3.00
2023-02-15T11:43:06.417Z,3.25
2023-02-15T11:45:39.467Z,3.48
2023-02-15T11:48:13.697Z,3.56
2023-02-15T11:50:45.563Z,3.66
2023-02-15T11:53:31.444Z,3.76
2023-02-15T11:56:05.053Z,3.86
2023-02-15T11:58:42.879Z,4.00
2023-02-15T12:01:17.824Z,4.18
2023-02-15T12:03:53.788Z,4.23
2023-02-15T12:06:27.253Z,4.34
2023-02-15T12:08:58.770Z,4.06
2023-02-15T12:11:33.688Z,3.94
2023-02-15T12:14:07.518Z,3.82
2023-02-15T12:16:48.137Z,3.82
2023-02-15T12:19:19.957Z,3.88
2023-02-15T12:21:53.882Z,3.90
2023-02-15T12:24:28.547Z,4.02
2023-02-15T12:27:05.021Z,3.99
2023-02-15T12:29:40.987Z,3.89
2023-02-15T12:32:17.669Z,3.77
2023-02-15T12:34:49.632Z,3.79
2023-02-15T12:37:24.301Z,3.78
2023-02-15T12:40:16.191Z,3.84
2023-02-15T12:42:47.752Z,3.96
2023-02-15T12:45:22.291Z,4.00
2023-02-15T12:48:12.363Z,3.92
2023-02-15T12:50:45.249Z,3.99
2023-02-15T12:53:24.021Z,4.08
2023-02-15T12:55:59.931Z,4.19
2023-02-15T12:58:32.613Z,4.25
2023-02-15T13:01:10.234Z,4.30
2023-02-15T13:04:02.254Z,4.38
2023-02-15T13:06:36.003Z,4.27
2023-02-15T13:09:13.616Z,4.16
2023-02-15T13:11:45.675Z,4.14
2023-02-15T13:14:22.904Z,4.09
2023-02-15T13:16:59.260Z,4.17
2023-02-15T13:19:36.656Z,4.24
2023-02-15T13:22:11.833Z,4.15
2023-02-15T13:24:51.434Z,4.15
2023-02-15T13:27:25.136Z,4.19
2023-02-15T13:29:59.517Z,4.34
2023-02-15T13:32:33.612Z,4.26
2023-02-15T13:35:08.184Z,4.11
2023-02-15T13:37:55.095Z,4.12
2023-02-15T13:40:34.916Z,4.20
2023-02-15T13:43:14.482Z,4.30
2023-02-15T13:45:46.003Z,4.32
2023-02-15T13:48:20.503Z,4.38
2023-02-15T13:50:58.092Z,4.43
2023-02-15T13:53:50.211Z,4.41
2023-02-15T13:56:30.589Z,4.32
2023-02-15T13:59:09.484Z,4.33
2023-02-15T14:01:45.662Z,4.32
2023-02-15T14:04:17.296Z,4.25
2023-02-15T14:07:07.384Z,4.09
2023-02-15T14:09:56.728Z,4.08
2023-02-15T14:12:52.683Z,4.22
2023-02-15T14:15:30.532Z,4.27
2023-02-15T14:18:11.617Z,4.32
2023-02-15T14:20:43.131Z,4.41
2023-02-15T14:23:14.622Z,4.36
2023-02-15T14:25:49.494Z,4.22
2023-02-15T14:28:29.028Z,4.18
2023-02-15T14:31:01.407Z,4.28
2023-02-15T14:33:43.905Z,4.29
2023-02-15T14:36:17.760Z,4.34
2023-02-15T14:39:35.917Z,4.39
2023-02-15T14:42:23.594Z,4.48
2023-02-15T14:45:15.433Z,4.59
2023-02-15T14:47:56.339Z,4.64
2023-02-15T14:50:31.077Z,4.67
2023-02-15T14:53:17.904Z,4.73
2023-02-15T14:56:05.668Z,4.82
2023-02-15T14:58:57.542Z,4.92
2023-02-15T15:01:30.650Z,5.02
2023-02-15T15:04:05.831Z,5.04
2023-02-15T15:06:39.074Z,5.01
2023-02-15T15:09:10.600Z,5.02
2023-02-15T15:11:44.894Z,5.03
2023-02-15T15:14:34.966Z,5.01
2023-02-15T15:17:07.535Z,4.93
2023-02-15T15:19:51.831Z,4.86
2023-02-15T15:22:25.370Z,4.83
2023-02-15T15:24:58.683Z,4.82
2023-02-15T15:27:39.211Z,4.77
2023-02-15T15:30:19.844Z,4.70
2023-02-15T15:33:21.443Z,4.71
2023-02-15T15:36:13.706Z,4.72
2023-02-15T15:39:00.438Z,4.73
2023-02-15T15:41:31.943Z,4.68
2023-02-15T15:44:13.466Z,4.68
2023-02-15T15:46:54.071Z,4.46
2023-02-15T15:49:29.225Z,4.34
2023-02-15T15:52:02.912Z,4.34
2023-02-15T15:54:34.533Z,4.32
2023-02-15T15:57:07.821Z,4.26
2023-02-15T15:59:44.338Z,4.25
2023-02-15T16:02:19.770Z,4.22
2023-02-15T16:04:51.329Z,4.21
2023-02-15T16:07:27.127Z,4.15
2023-02-15T16:10:01.770Z,4.12
2023-02-15T16:12:34.932Z,4.04
2023-02-15T16:15:17.447Z,4.00
2023-02-15T16:17:51.349Z,3.99
2023-02-15T16:20:30.356Z,3.99
2023-02-15T16:23:10.203Z,3.89
2023-02-15T16:25:51.234Z,3.74
2023-02-15T16:28:23.052Z,3.57
2023-02-15T16:31:13.922Z,3.48
2023-02-15T16:33:48.246Z,3.36
2023-02-15T16:36:26.755Z,3.25
2023-02-15T16:38:58.270Z,3.20
2023-02-15T16:41:30.297Z,3.18
2023-02-15T16:44:05.642Z,3.12
2023-02-15T16:46:40.929Z,3.08
2023-02-15T16:49:17.560Z,2.99
2023-02-15T16:51:57.407Z,2.93
2023-02-15T16:54:30.973Z,2.96
2023-02-15T16:57:02.810Z,2.91
2023-02-15T16:59:37.451Z,2.82
2023-02-15T17:02:37.267Z,2.78
2023-02-15T17:05:16.784Z,2.76
2023-02-15T17:07:51.165Z,2.78
2023-02-15T17:10:29.028Z,2.71
2023-02-15T17:13:04.789Z,2.70
2023-02-15T17:15:36.346Z,2.69
2023-02-15T17:18:24.644Z,2.67
2023-02-15T17:20:58.215Z,2.66
2023-02-15T17:23:32.167Z,2.62
2023-02-15T17:26:12.732Z,2.62
2023-02-15T17:28:48.972Z,2.53
2023-02-15T17:31:21.975Z,2.45
2023-02-15T17:33:55.959Z,2.43
2023-02-15T17:36:30.314Z,2.42
2023-02-15T17:39:06.590Z,2.37
2023-02-15T17:41:38.358Z,2.33
2023-02-15T17:44:14.840Z,2.32
2023-02-15T17:46:47.765Z,2.28
2023-02-15T17:49:23.639Z,2.27
2023-02-15T17:51:55.255Z,2.25
2023-02-15T17:54:45.202Z,2.22
2023-02-15T17:57:16.964Z,2.19
2023-02-15T18:00:07.389Z,2.13
2023-02-15T18:03:02.847Z,2.11
2023-02-15T18:05:53.091Z,2.04
2023-02-15T18:08:46.255Z,1.96
2023-02-15T18:11:38.330Z,1.95
2023-02-15T18:14:12.753Z,1.92
2023-02-15T18:16:45.714Z,1.90
2023-02-15T18:19:19.864Z,1.89
2023-02-15T18:21:52.905Z,1.88
2023-02-15T18:24:28.235Z,1.87
2023-02-15T18:26:59.879Z,1.86
2023-02-15T18:29:31.786Z,1.87
2023-02-15T18:32:07.296Z,1.86
2023-02-15T18:34:41.823Z,1.85
2023-02-15T18:37:18.329Z,1.84
2023-02-15T18:39:54.165Z,1.76
2023-02-15T18:42:27.992Z,1.75
2023-02-15T18:45:15.010Z,1.75
2023-02-15T18:47:47.001Z,1.75
2023-02-15T18:50:19.773Z,1.74
2023-02-15T18:52:51.685Z,1.71
2023-02-15T18:55:25.006Z,1.63
2023-02-15T18:57:57.197Z,1.60
2023-02-15T19:00:33.474Z,1.59
2023-02-15T19:03:07.625Z,1.60
2023-02-15T19:05:41.453Z,1.58
2023-02-15T19:08:16.938Z,1.55
2023-02-15T19:10:48.703Z,1.55
2023-02-15T19:13:20.346Z,1.55
2023-02-15T19:15:52.145Z,1.54
2023-02-15T19:18:23.714Z,1.51
2023-02-15T19:20:55.566Z,1.45
2023-02-15T19:23:27.214Z,1.43
2023-02-15T19:25:59.121Z,1.37
2023-02-15T19:28:33.339Z,1.37
2023-02-15T19:31:05.353Z,1.39
2023-02-15T19:33:37.172Z,1.38
2023-02-15T19:36:15.018Z,1.32
2023-02-15T19:38:50.561Z,1.25
2023-02-15T19:41:27.434Z,1.28
2023-02-15T19:43:59.474Z,1.25
2023-02-15T19:46:31.450Z,1.27
2023-02-15T19:49:03.228Z,1.29
2023-02-15T19:51:34.966Z,1.28
2023-02-15T19:54:27.371Z,1.28
2023-02-15T19:57:02.222Z,1.26
2023-02-15T19:59:36.443Z,1.24
2023-02-15T20:02:12.903Z,1.21
2023-02-15T20:04:44.661Z,1.18
2023-02-15T20:07:24.204Z,1.12
2023-02-15T20:09:55.951Z,1.11
2023-02-15T20:12:29.559Z,1.12
2023-02-15T20:15:01.207Z,1.12
2023-02-15T20:17:32.893Z,1.12
2023-02-15T20:20:04.679Z,1.12
2023-02-15T20:22:36.389Z,1.10
2023-02-15T20:25:27.644Z,1.06
2023-02-15T20:27:59.714Z,1.03
2023-02-15T20:30:32.186Z,1.00
2023-02-15T20:33:04.050Z,0.98
2023-02-15T20:35:35.769Z,0.94
2023-02-15T20:38:10.887Z,0.92
2023-02-15T20:41:02.881Z,0.93
2023-02-15T20:43:34.984Z,0.92
2023-02-15T20:46:08.438Z,0.92
2023-02-15T20:48:40.447Z,0.94
2023-02-15T20:51:18.763Z,0.96
2023-02-15T20:53:53.483Z,0.98
2023-02-15T20:56:25.049Z,0.98
2023-02-15T20:58:59.530Z,0.92
2023-02-15T21:01:32.361Z,0.95
2023-02-15T21:04:04.161Z,0.96
2023-02-15T21:06:36.219Z,1.00
2023-02-15T21:09:11.234Z,1.06
2023-02-15T21:11:44.171Z,1.11
2023-02-15T21:14:17.734Z,1.10
2023-02-15T21:16:49.930Z,1.09
2023-02-15T21:19:22.633Z,1.14
2023-02-15T21:21:54.412Z,1.15
2023-02-15T21:24:27.847Z,1.15
2023-02-15T21:27:01.414Z,1.17
2023-02-15T21:29:33.462Z,1.21
2023-02-15T21:32:05.336Z,1.26
2023-02-15T21:34:38.242Z,1.33
2023-02-15T21:37:26.596Z,1.37
2023-02-15T21:39:58.286Z,1.37
2023-02-15T21:42:48.783Z,1.39
2023-02-15T21:45:38.901Z,1.43
2023-02-15T21:48:10.431Z,1.43
2023-02-15T21:51:11.746Z,1.46
2023-02-15T21:53:45.976Z,1.49
2023-02-15T21:56:18.785Z,1.46
2023-02-15T21:58:50.337Z,1.47
2023-02-15T22:01:26.090Z,1.49
2023-02-15T22:03:58.901Z,1.47
2023-02-15T22:06:30.687Z,1.51
2023-02-15T22:09:02.278Z,1.54
2023-02-15T22:11:33.974Z,1.61
2023-02-15T22:14:05.592Z,1.62
2023-02-15T22:16:37.221Z,1.65
2023-02-15T22:19:11.524Z,1.63
2023-02-15T22:21:43.129Z,1.58
2023-02-15T22:24:14.784Z,1.48
2023-02-15T22:26:46.582Z,1.47
2023-02-15T22:29:18.373Z,1.37
2023-02-15T22:31:50.099Z,1.33
2023-02-15T22:34:29.385Z,1.31
2023-02-15T22:37:01.495Z,1.33
2023-02-15T22:39:34.032Z,1.33
2023-02-15T22:42:06.808Z,1.36
2023-02-15T22:44:38.423Z,1.36
2023-02-15T22:47:15.541Z,1.37
2023-02-15T22:49:47.214Z,1.35
2023-02-15T22:52:19.176Z,1.39
2023-02-15T22:54:50.813Z,1.34
2023-02-15T22:57:30.188Z,1.35
2023-02-15T23:00:01.928Z,1.38
2023-02-15T23:02:33.883Z,1.44
2023-02-15T23:05:05.837Z,1.49
2023-02-15T23:07:37.557Z,1.45
2023-02-15T23:10:21.237Z,1.40
2023-02-15T23:13:13.024Z,1.41
2023-02-15T23:15:45.532Z,1.28
2023-02-15T23:18:33.852Z,1.13
2023-02-15T23:21:25.816Z,1.04
2023-02-15T23:24:01.349Z,1.05
2023-02-15T23:26:32.954Z,1.00
2023-02-15T23:29:06.193Z,1.03
2023-02-15T23:31:43.105Z,1.01
2023-02-15T23:34:35.054Z,1.01
2023-02-15T23:37:07.821Z,1.01
2023-02-15T23:39:58.071Z,1.05
2023-02-15T23:42:31.269Z,1.02
2023-02-15T23:45:03.049Z,1.01
2023-02-15T23:47:53.931Z,0.97
2023-02-15T23:50:36.508Z,1.04
2023-02-15T23:53:09.854Z,0.85
2023-02-15T23:55:43.445Z,0.73
2023-02-15T23:58:17.049Z,0.66
